Time;durP1;ratioP1;P1;durP2;ratioP2;P2;SDS_P1;SDS_P2;PMS_P1;PMS_P2;Temp;Humidity;BMP_temperature;BMP_pressure;BME280_temperature;BME280_humidity;BME280_pressure;Samples;Min_cycle;Max_cycle;Signal;HPM_P1;HPM_P2
2023/10/25 00:02:08;;;;;;;6.13;2.28;;;8.90;99.90;;;;;;5023559;28;85524;-71
2023/10/25 00:04:34;;;;;;;14.73;3.15;;;8.90;99.90;;;;;;5022653;28;86053;-71
2023/10/25 00:07:03;;;;;;;5.95;2.15;;;8.90;99.90;;;;;;5027029;28;89247;-72
2023/10/25 00:09:35;;;;;;;8.13;1.90;;;8.90;99.90;;;;;;5015127;28;89467;-72
2023/10/25 00:12:01;;;;;;;10.45;2.15;;;8.90;99.90;;;;;;5022768;28;85846;-71
2023/10/25 00:15:06;;;;;;;10.18;2.35;;;8.90;99.90;;;;;;5014357;28;85671;-71
2023/10/25 00:20:36;;;;;;;10.32;1.70;;;9.00;99.90;;;;;;5017429;28;90140;-71
2023/10/25 00:23:04;;;;;;;8.07;2.42;;;9.00;99.90;;;;;;5030255;28;86242;-72
2023/10/25 00:25:30;;;;;;;17.27;3.92;;;9.00;99.90;;;;;;5012896;28;85999;-72
2023/10/25 00:27:56;;;;;;;5.88;2.28;;;8.90;99.90;;;;;;5008283;28;90043;-72
2023/10/25 00:30:21;;;;;;;8.48;2.72;;;9.00;99.90;;;;;;5019460;28;86305;-73
2023/10/25 00:32:48;;;;;;;6.05;1.65;;;9.00;99.90;;;;;;5022629;28;86029;-73
2023/10/25 00:35:14;;;;;;;5.43;2.08;;;8.90;99.90;;;;;;5018856;28;85669;-72
2023/10/25 00:37:40;;;;;;;5.90;1.80;;;8.90;99.90;;;;;;5022451;28;86923;-72
2023/10/25 00:40:09;;;;;;;4.20;2.03;;;8.90;99.90;;;;;;5010357;28;89310;-72
2023/10/25 00:42:50;;;;;;;8.82;1.92;;;8.90;99.90;;;;;;5019942;28;86050;-72
2023/10/25 00:45:15;;;;;;;9.55;1.80;;;8.90;99.90;;;;;;5008407;28;86002;-72
2023/10/25 00:47:52;;;;;;;6.60;1.98;;;8.90;99.90;;;;;;5019540;28;87417;-72
2023/10/25 00:50:18;;;;;;;7.53;2.05;;;8.90;99.90;;;;;;5014076;28;90066;-72
2023/10/25 00:52:45;;;;;;;6.50;1.73;;;8.90;99.90;;;;;;5022452;28;85698;-72
2023/10/25 00:55:10;;;;;;;5.85;1.60;;;8.80;99.90;;;;;;5016900;28;86234;-72
2023/10/25 01:01:05;;;;;;;5.03;2.78;;;8.80;99.90;;;;;;5020739;28;85650;-72
2023/10/25 01:03:31;;;;;;;6.07;2.15;;;8.80;99.90;;;;;;5022123;28;85723;-72
2023/10/25 01:06:10;;;;;;;7.30;2.40;;;8.90;99.90;;;;;;5020636;28;85755;-71
2023/10/25 01:08:36;;;;;;;6.55;1.90;;;8.90;99.90;;;;;;5021758;28;87024;-72
2023/10/25 01:11:05;;;;;;;4.07;1.92;;;8.90;99.90;;;;;;5009972;28;88995;-72
2023/10/25 01:14:17;;;;;;;5.20;2.20;;;8.90;99.90;;;;;;5034683;28;86339;-73
2023/10/25 01:16:43;;;;;;;10.10;1.77;;;8.80;99.90;;;;;;5008225;28;85999;-72
2023/10/25 01:19:38;;;;;;;4.18;1.70;;;8.80;99.90;;;;;;5003820;28;89476;-72
2023/10/25 01:22:04;;;;;;;6.60;1.77;;;8.80;99.90;;;;;;5014705;28;86471;-72
2023/10/25 01:24:30;;;;;;;9.77;2.30;;;8.80;99.90;;;;;;5006065;28;86318;-72
2023/10/25 01:27:00;;;;;;;5.18;2.00;;;8.80;99.90;;;;;;5007077;28;86056;-72
2023/10/25 01:29:25;;;;;;;5.57;2.38;;;8.90;99.90;;;;;;5028422;28;90185;-73
2023/10/25 01:31:53;;;;;;;9.65;1.90;;;8.90;99.90;;;;;;5006670;28;89697;-72
2023/10/25 01:34:19;;;;;;;11.77;2.25;;;8.90;99.90;;;;;;5001968;28;87385;-72
2023/10/25 01:36:52;;;;;;;5.07;1.65;;;8.90;99.90;;;;;;5018728;28;85785;-72
2023/10/25 01:39:18;;;;;;;6.22;1.70;;;8.90;99.90;;;;;;5019438;28;87408;-72
2023/10/25 01:41:44;;;;;;;5.25;2.42;;;8.90;99.90;;;;;;5011338;28;90124;-72
2023/10/25 01:44:09;;;;;;;8.48;2.22;;;9.00;99.90;;;;;;5020490;28;85839;-72
2023/10/25 01:46:50;;;;;;;4.90;2.17;;;9.00;99.90;;;;;;5019415;28;85873;-72
2023/10/25 01:49:16;;;;;;;6.07;2.00;;;9.00;99.90;;;;;;5018708;28;86923;-73
2023/10/25 01:51:44;;;;;;;6.53;2.00;;;9.00;99.90;;;;;;5020412;28;86519;-73
2023/10/25 01:54:12;;;;;;;5.15;2.20;;;9.00;99.90;;;;;;5020560;28;86074;-73
2023/10/25 01:56:38;;;;;;;5.03;1.80;;;9.00;99.90;;;;;;5020740;28;85844;-72
2023/10/25 01:59:17;;;;;;;4.57;1.50;;;9.00;99.90;;;;;;5023220;28;86964;-72
2023/10/25 02:01:43;;;;;;;9.07;2.22;;;9.00;99.90;;;;;;5024468;28;87035;-73
2023/10/25 02:04:09;;;;;;;5.70;2.40;;;9.10;99.90;;;;;;5031201;28;85976;-72
2023/10/25 02:06:50;;;;;;;5.78;2.33;;;9.10;99.90;;;;;;5012343;28;85978;-72
2023/10/25 02:09:16;;;;;;;6.82;1.90;;;9.10;99.90;;;;;;5015101;28;90427;-72
2023/10/25 02:11:41;;;;;;;4.82;1.45;;;9.10;99.90;;;;;;5027450;28;86448;-72
2023/10/25 02:14:12;;;;;;;4.72;1.83;;;9.10;99.90;;;;;;4999593;28;86539;-72
2023/10/25 02:16:38;;;;;;;5.55;1.90;;;9.10;99.90;;;;;;5015959;28;85790;-72
2023/10/25 02:19:04;;;;;;;7.07;2.15;;;9.10;99.90;;;;;;5010243;28;90861;-72
2023/10/25 02:21:35;;;;;;;8.57;2.00;;;9.10;99.90;;;;;;5031784;28;86386;-72
2023/10/25 02:24:10;;;;;;;6.05;1.88;;;9.10;99.90;;;;;;5029604;28;86200;-73
2023/10/25 02:26:44;;;;;;;7.25;2.08;;;9.10;99.90;;;;;;5032188;28;85896;-72
2023/10/25 02:29:10;;;;;;;6.05;1.83;;;9.20;99.90;;;;;;5019088;28;90258;-72
2023/10/25 02:31:39;;;;;;;8.18;1.80;;;9.20;99.90;;;;;;5015866;28;89717;-75
2023/10/25 02:34:05;;;;;;;5.20;2.10;;;9.20;99.90;;;;;;5033470;28;85664;-72
2023/10/25 02:36:41;;;;;;;2.38;1.63;;;9.20;99.90;;;;;;5021374;28;85765;-74
2023/10/25 02:42:17;;;;;;;5.57;2.28;;;9.10;99.90;;;;;;5029775;28;87139;-73
2023/10/25 02:44:44;;;;;;;5.53;1.98;;;9.10;99.90;;;;;;5027579;28;85710;-72
2023/10/25 02:47:09;;;;;;;5.68;1.83;;;9.10;99.90;;;;;;5036415;28;85894;-72
2023/10/25 02:49:40;;;;;;;4.63;2.00;;;9.10;99.90;;;;;;5031456;28;86033;-72
2023/10/25 02:52:09;;;;;;;6.00;2.00;;;9.20;99.90;;;;;;5029809;28;89884;-73
2023/10/25 02:54:55;;;;;;;4.25;1.73;;;9.10;99.90;;;;;;5034670;28;85913;-72
2023/10/25 02:57:20;;;;;;;5.70;1.80;;;9.10;99.90;;;;;;5014925;28;85946;-72
2023/10/25 02:59:56;;;;;;;5.88;1.70;;;9.10;99.90;;;;;;5007271;28;90110;-72
2023/10/25 03:02:22;;;;;;;2.75;1.23;;;9.10;99.90;;;;;;5025102;27;86974;-72
2023/10/25 03:04:48;;;;;;;4.82;1.52;;;9.10;99.90;;;;;;5030120;28;86135;-72
2023/10/25 03:07:16;;;;;;;9.35;1.50;;;9.10;99.90;;;;;;5016703;28;85880;-72
2023/10/25 03:09:42;;;;;;;7.75;1.52;;;9.10;99.90;;;;;;5010263;28;91629;-72
2023/10/25 03:12:07;;;;;;;3.97;1.42;;;9.10;99.90;;;;;;5015213;28;89653;-73
2023/10/25 03:14:33;;;;;;;11.68;1.45;;;9.10;99.90;;;;;;5030218;28;85910;-72
2023/10/25 03:16:59;;;;;;;6.13;1.77;;;9.10;99.90;;;;;;5030407;28;86645;-71
2023/10/25 03:19:37;;;;;;;8.18;1.50;;;9.20;99.90;;;;;;5024143;28;90159;-72
2023/10/25 03:22:07;;;;;;;7.80;1.48;;;9.20;99.90;;;;;;5006101;28;86379;-72
2023/10/25 03:24:33;;;;;;;4.05;1.25;;;9.30;99.90;;;;;;5024547;28;85955;-72
2023/10/25 03:27:07;;;;;;;5.05;1.50;;;9.30;99.90;;;;;;5026335;28;86324;-72
2023/10/25 03:29:38;;;;;;;3.50;1.20;;;9.30;99.90;;;;;;5032803;28;86631;-72
2023/10/25 03:32:04;;;;;;;3.70;1.10;;;9.30;99.90;;;;;;5029593;28;86441;-73
2023/10/25 03:34:34;;;;;;;8.75;1.60;;;9.40;99.90;;;;;;5030724;28;86265;-72
2023/10/25 03:37:00;;;;;;;8.55;1.58;;;9.40;99.90;;;;;;5035637;28;86126;-73
2023/10/25 03:39:36;;;;;;;3.33;1.40;;;9.40;99.90;;;;;;5032845;28;86605;-75
2023/10/25 03:42:05;;;;;;;5.25;1.20;;;9.40;99.90;;;;;;5025618;28;90187;-72
2023/10/25 03:44:31;;;;;;;5.78;1.35;;;9.40;99.90;;;;;;5013422;28;86062;-72
2023/10/25 03:47:03;;;;;;;10.13;3.17;;;9.50;99.90;;;;;;5026580;28;92871;-72
2023/10/25 03:49:30;;;;;;;5.10;1.20;;;9.40;99.90;;;;;;5013190;28;89342;-72
2023/10/25 03:51:56;;;;;;;7.88;1.55;;;9.50;99.90;;;;;;5027025;28;89853;-72
2023/10/25 03:54:44;;;;;;;7.57;1.42;;;9.50;99.90;;;;;;5036533;28;85777;-73
2023/10/25 03:57:10;;;;;;;4.30;1.40;;;9.50;99.90;;;;;;5016145;28;85895;-72
2023/10/25 03:59:38;;;;;;;3.08;0.90;;;9.50;99.90;;;;;;5025767;28;86982;-72
2023/10/25 04:02:04;;;;;;;4.10;1.20;;;9.50;99.90;;;;;;5012111;28;88936;-72
2023/10/25 04:04:30;;;;;;;4.45;1.15;;;9.50;99.90;;;;;;5031924;28;85828;-72
2023/10/25 04:06:56;;;;;;;3.70;1.63;;;9.50;99.90;;;;;;5029186;28;85858;-72
2023/10/25 04:09:25;;;;;;;5.75;1.75;;;9.50;99.90;;;;;;5028527;28;90180;-73
2023/10/25 04:12:12;;;;;;;6.28;1.83;;;9.50;99.90;;;;;;5031468;28;86499;-74
2023/10/25 04:14:57;;;;;;;8.23;1.48;;;9.50;99.90;;;;;;5027609;28;85848;-72
2023/10/25 04:17:23;;;;;;;6.07;1.83;;;9.50;99.90;;;;;;4994050;28;85979;-72
2023/10/25 04:19:49;;;;;;;7.43;1.50;;;9.50;99.90;;;;;;5030113;28;87235;-72
2023/10/25 04:22:19;;;;;;;7.43;1.20;;;9.50;99.90;;;;;;5011479;28;89516;-72
2023/10/25 04:24:52;;;;;;;6.82;1.20;;;9.50;99.90;;;;;;4995596;28;86141;-72
2023/10/25 04:27:25;;;;;;;2.65;0.93;;;9.50;99.90;;;;;;5025808;28;86033;-72
2023/10/25 04:29:51;;;;;;;5.65;1.35;;;9.50;99.90;;;;;;5028234;28;87024;-74
2023/10/25 04:32:18;;;;;;;4.15;1.25;;;9.50;99.90;;;;;;5024579;28;89601;-72
2023/10/25 04:34:43;;;;;;;7.75;1.23;;;9.50;99.90;;;;;;5027954;28;85881;-72
2023/10/25 04:37:09;;;;;;;5.00;1.15;;;9.60;99.90;;;;;;5008608;28;85949;-73
2023/10/25 04:39:35;;;;;;;3.08;0.90;;;9.50;99.90;;;;;;5010489;28;90686;-72
2023/10/25 04:42:20;;;;;;;2.35;1.05;;;9.50;99.90;;;;;;5029905;28;86488;-74
2023/10/25 04:44:46;;;;;;;6.30;1.17;;;9.60;99.90;;;;;;5027980;28;86341;-72
2023/10/25 04:47:13;;;;;;;2.88;1.02;;;9.60;99.90;;;;;;5012255;28;85902;-72
2023/10/25 04:49:39;;;;;;;9.18;1.40;;;9.60;99.90;;;;;;5026617;28;86330;-72
2023/10/25 04:52:05;;;;;;;2.88;0.80;;;9.60;99.90;;;;;;5005985;28;90013;-72
2023/10/25 04:54:45;;;;;;;5.40;1.20;;;9.60;99.90;;;;;;5027663;28;86005;-74
2023/10/25 04:57:10;;;;;;;9.57;1.42;;;9.60;99.90;;;;;;4999373;28;85955;-72
2023/10/25 05:00:32;;;;;;;5.40;1.08;;;9.60;99.90;;;;;;5030959;28;86948;-72
2023/10/25 05:02:58;;;;;;;6.65;1.10;;;9.70;99.90;;;;;;5028982;28;86470;-72
2023/10/25 05:05:33;;;;;;;3.40;1.20;;;9.70;99.90;;;;;;5028394;28;85779;-72
2023/10/25 05:08:02;;;;;;;1.77;0.82;;;9.70;99.90;;;;;;5023254;28;86413;-72
2023/10/25 05:10:28;;;;;;;6.07;1.33;;;9.70;99.90;;;;;;5029190;28;87917;-73
2023/10/25 05:12:54;;;;;;;4.93;0.88;;;9.70;99.90;;;;;;5021410;28;88272;-73
2023/10/25 05:15:20;;;;;;;8.63;1.15;;;9.70;99.90;;;;;;5024528;28;86437;-72
2023/10/25 05:17:47;;;;;;;7.93;1.40;;;9.80;99.90;;;;;;5023228;28;85835;-71
2023/10/25 05:20:16;;;;;;;5.13;0.95;;;9.80;99.90;;;;;;4993454;28;89713;-71
2023/10/25 05:22:52;;;;;;;3.25;1.23;;;9.80;99.90;;;;;;5008576;28;89664;-72
2023/10/25 05:25:19;;;;;;;5.32;2.35;;;9.80;99.90;;;;;;5006727;28;85827;-72
2023/10/25 05:27:45;;;;;;;4.80;1.13;;;9.80;99.90;;;;;;4991326;28;86142;-74
2023/10/25 05:30:17;;;;;;;2.38;1.38;;;9.90;99.90;;;;;;5027353;28;91746;-72
2023/10/25 05:33:00;;;;;;;3.33;1.05;;;9.90;99.90;;;;;;4998663;28;88231;-72
2023/10/25 05:35:28;;;;;;;8.18;1.23;;;9.90;99.90;;;;;;5011055;28;86250;-71
2023/10/25 05:38:20;;;;;;;5.53;1.20;;;9.90;99.90;;;;;;5011216;28;86143;-74
2023/10/25 05:40:56;;;;;;;4.25;1.20;;;9.90;99.90;;;;;;5013305;28;90898;-72
2023/10/25 05:43:34;;;;;;;5.75;0.90;;;9.90;99.90;;;;;;5026545;28;86685;-72
2023/10/25 05:45:59;;;;;;;9.38;1.27;;;10.00;99.90;;;;;;5027080;28;86757;-73
2023/10/25 05:48:25;;;;;;;3.47;1.13;;;10.00;99.90;;;;;;5027981;28;85934;-72
2023/10/25 05:50:51;;;;;;;3.85;1.20;;;10.00;99.90;;;;;;5003674;28;90522;-72
2023/10/25 05:53:20;;;;;;;2.83;1.17;;;10.00;99.90;;;;;;5010685;28;88549;-72
2023/10/25 05:55:48;;;;;;;5.07;1.17;;;10.00;99.90;;;;;;5007232;28;86343;-76
2023/10/25 05:58:40;;;;;;;5.88;1.35;;;10.10;99.90;;;;;;4996690;28;86560;-74
2023/10/25 06:01:15;;;;;;;2.78;1.40;;;10.10;99.90;;;;;;5029368;28;86489;-73
2023/10/25 06:03:52;;;;;;;6.05;1.42;;;10.10;99.90;;;;;;5007988;28;89178;-72
2023/10/25 06:06:24;;;;;;;2.70;1.42;;;10.10;99.90;;;;;;5028709;28;85979;-73
2023/10/25 06:08:52;;;;;;;3.40;1.35;;;10.20;99.90;;;;;;5025395;28;85901;-74
2023/10/25 06:11:18;;;;;;;3.25;1.20;;;10.20;99.90;;;;;;5030567;28;89140;-71
2023/10/25 06:13:44;;;;;;;7.63;1.33;;;10.20;99.90;;;;;;4994360;28;89826;-73
2023/10/25 06:16:10;;;;;;;6.55;1.70;;;10.20;99.90;;;;;;5016026;28;86695;-71
2023/10/25 06:18:35;;;;;;;5.20;1.48;;;10.20;99.90;;;;;;5013108;28;85954;-71
2023/10/25 06:21:01;;;;;;;2.10;1.35;;;10.20;99.90;;;;;;5031377;28;87075;-74
2023/10/25 06:23:27;;;;;;;5.15;1.83;;;10.20;99.90;;;;;;5008879;28;90286;-74
2023/10/25 06:25:53;;;;;;;5.05;1.77;;;10.30;99.90;;;;;;5003324;28;86691;-74
2023/10/25 06:28:21;;;;;;;4.25;1.42;;;10.20;99.90;;;;;;5024071;28;86214;-73
2023/10/25 06:30:47;;;;;;;3.30;1.77;;;10.20;99.90;;;;;;5003568;28;90072;-74
2023/10/25 06:33:12;;;;;;;10.93;2.53;;;10.30;99.90;;;;;;5004020;28;89118;-72
2023/10/25 06:35:38;;;;;;;26.75;4.40;;;10.30;99.90;;;;;;5027892;28;86722;-72
2023/10/25 06:38:04;;;;;;;16.15;2.83;;;10.20;99.90;;;;;;5009822;28;85928;-73
2023/10/25 06:40:30;;;;;;;5.80;1.80;;;10.30;99.90;;;;;;5027811;28;86571;-76
2023/10/25 06:42:56;;;;;;;7.18;1.45;;;10.30;99.90;;;;;;5014292;28;86393;-72
2023/10/25 06:45:22;;;;;;;5.20;2.00;;;10.30;99.90;;;;;;5012078;28;86384;-77
2023/10/25 06:47:48;;;;;;;2.95;1.50;;;10.30;99.90;;;;;;4978154;28;86519;-75
2023/10/25 06:50:14;;;;;;;7.65;1.85;;;10.30;99.90;;;;;;4984950;28;91114;-75
2023/10/25 06:52:46;;;;;;;8.07;2.33;;;10.30;99.90;;;;;;5001872;28;91906;-75
2023/10/25 06:55:13;;;;;;;7.10;1.85;;;10.30;99.90;;;;;;4984869;28;87074;-73
2023/10/25 06:57:56;;;;;;;6.60;2.10;;;10.40;99.90;;;;;;4985047;28;86389;-75
2023/10/25 07:00:23;;;;;;;3.42;1.40;;;10.30;99.90;;;;;;5013280;28;89513;-74
2023/10/25 07:02:53;;;;;;;7.38;2.08;;;10.30;99.90;;;;;;4993231;28;90609;-77
2023/10/25 07:05:21;;;;;;;5.82;2.90;;;10.30;99.90;;;;;;5015293;28;86713;-74
2023/10/25 07:07:50;;;;;;;7.05;2.35;;;10.40;99.90;;;;;;4982063;28;86435;-74
2023/10/25 07:10:17;;;;;;;6.38;2.47;;;10.40;99.90;;;;;;5014519;28;90422;-73
2023/10/25 07:12:42;;;;;;;5.97;2.47;;;10.40;99.90;;;;;;4981426;28;91139;-76
2023/10/25 07:15:09;;;;;;;4.38;1.70;;;10.40;99.90;;;;;;4992553;28;86977;-75
2023/10/25 07:17:35;;;;;;;5.25;2.65;;;10.40;99.90;;;;;;4981500;28;86979;-73
2023/10/25 07:20:01;;;;;;;3.45;1.80;;;10.40;99.90;;;;;;4997189;28;90929;-76
2023/10/25 07:22:28;;;;;;;7.13;2.35;;;10.40;99.90;;;;;;4998797;28;90097;-74
2023/10/25 07:24:55;;;;;;;9.57;2.28;;;10.50;99.90;;;;;;4995830;28;87018;-75
2023/10/25 07:27:21;;;;;;;5.13;2.17;;;10.40;99.90;;;;;;4994513;28;86447;-74
2023/10/25 07:29:48;;;;;;;6.55;2.03;;;10.50;99.90;;;;;;4981555;28;89022;-73
2023/10/25 07:32:13;;;;;;;7.75;1.85;;;10.50;99.90;;;;;;5008292;28;89974;-75
2023/10/25 07:34:40;;;;;;;3.28;2.10;;;10.50;99.90;;;;;;5005523;28;86627;-74
2023/10/25 07:37:05;;;;;;;3.35;1.88;;;10.50;99.90;;;;;;5010500;28;86143;-74
2023/10/25 07:39:32;;;;;;;4.13;2.33;;;10.50;99.90;;;;;;5009476;28;91123;-73
2023/10/25 07:41:59;;;;;;;5.68;2.20;;;10.60;99.90;;;;;;5007754;28;89532;-74
2023/10/25 07:44:25;;;;;;;7.80;2.00;;;10.60;99.90;;;;;;5009594;28;85865;-76
2023/10/25 07:47:17;;;;;;;3.80;2.17;;;10.60;99.90;;;;;;5031037;28;86554;-75
2023/10/25 07:49:45;;;;;;;3.42;2.17;;;10.60;99.90;;;;;;5026204;27;87243;-75
2023/10/25 07:52:11;;;;;;;5.50;2.42;;;10.70;99.90;;;;;;4997594;28;87465;-74
2023/10/25 07:54:37;;;;;;;3.15;2.00;;;10.70;99.90;;;;;;5005316;28;86001;-75
2023/10/25 07:57:03;;;;;;;9.43;2.50;;;10.70;99.90;;;;;;5027568;28;86363;-74
2023/10/25 07:59:29;;;;;;;7.35;2.60;;;10.70;99.90;;;;;;5029163;28;89249;-75
2023/10/25 08:02:39;;;;;;;7.00;2.95;;;10.70;99.90;;;;;;5006210;28;90155;-74
2023/10/25 08:05:05;;;;;;;9.00;2.60;;;10.80;99.90;;;;;;4998448;28;89232;-75
2023/10/25 08:07:31;;;;;;;5.50;2.50;;;10.80;99.90;;;;;;5009499;28;86235;-74
2023/10/25 08:09:58;;;;;;;5.45;2.70;;;10.80;99.90;;;;;;5028498;28;86555;-74
2023/10/25 08:12:24;;;;;;;8.73;3.38;;;10.90;99.90;;;;;;5005572;28;86825;-74
2023/10/25 08:14:50;;;;;;;4.32;2.50;;;10.90;99.90;;;;;;5026984;28;85883;-77
2023/10/25 08:17:15;;;;;;;4.38;2.67;;;10.90;99.90;;;;;;5029768;28;86160;-75
2023/10/25 08:19:41;;;;;;;5.43;2.92;;;10.90;99.90;;;;;;5029523;28;86777;-73
2023/10/25 08:22:08;;;;;;;6.43;2.60;;;11.00;99.90;;;;;;5006830;28;89701;-76
2023/10/25 08:24:34;;;;;;;5.15;2.70;;;11.00;99.90;;;;;;4996332;28;85821;-77
2023/10/25 08:27:00;;;;;;;4.18;2.60;;;11.00;99.90;;;;;;5012750;28;86074;-76
2023/10/25 08:29:33;;;;;;;7.15;2.83;;;11.00;99.90;;;;;;5030061;28;87634;-74
2023/10/25 08:31:59;;;;;;;3.30;2.67;;;11.00;99.90;;;;;;5011753;28;89916;-74
2023/10/25 08:34:58;;;;;;;5.63;2.75;;;11.10;99.90;;;;;;5031047;28;86471;-75
2023/10/25 08:37:24;;;;;;;6.32;2.60;;;11.10;99.90;;;;;;5005383;28;86370;-75
2023/10/25 08:39:49;;;;;;;6.38;2.75;;;11.10;99.90;;;;;;5028021;28;87049;-74
2023/10/25 08:42:15;;;;;;;5.28;2.40;;;11.10;99.90;;;;;;5027020;28;86305;-74
2023/10/25 08:44:41;;;;;;;3.30;2.50;;;11.20;99.90;;;;;;5004445;28;86106;-74
2023/10/25 08:47:10;;;;;;;5.10;3.10;;;11.20;99.90;;;;;;5009037;28;86071;-73
2023/10/25 08:49:37;;;;;;;5.72;2.97;;;11.20;99.90;;;;;;5025949;28;87372;-72
2023/10/25 08:52:06;;;;;;;4.38;2.90;;;11.30;99.90;;;;;;5025720;28;85942;-72
2023/10/25 08:54:37;;;;;;;8.35;3.47;;;11.30;99.90;;;;;;5016047;28;85864;-72
2023/10/25 08:57:11;;;;;;;4.85;3.28;;;11.30;99.90;;;;;;5001225;28;85876;-73
2023/10/25 09:00:30;;;;;;;5.43;2.95;;;11.30;99.90;;;;;;5008521;28;90375;-73
2023/10/25 09:02:55;;;;;;;5.65;3.15;;;11.30;99.90;;;;;;5033142;28;86477;-72
2023/10/25 09:05:40;;;;;;;5.85;3.60;;;11.30;99.90;;;;;;5029374;28;85756;-73
2023/10/25 09:08:26;;;;;;;6.13;3.20;;;11.30;99.90;;;;;;5006811;28;86082;-72
2023/10/25 09:10:57;;;;;;;5.38;3.42;;;11.30;99.90;;;;;;5008950;28;86342;-74
2023/10/25 09:13:54;;;;;;;5.15;3.97;;;11.40;99.90;;;;;;5021347;28;85958;-73
2023/10/25 09:16:20;;;;;;;5.90;3.50;;;11.40;99.90;;;;;;5025835;28;86465;-74
2023/10/25 09:18:45;;;;;;;7.38;3.97;;;11.40;99.90;;;;;;4995083;28;86093;-73
2023/10/25 09:21:11;;;;;;;6.47;3.55;;;11.40;99.90;;;;;;4990772;28;90449;-73
2023/10/25 09:23:59;;;;;;;5.78;3.53;;;11.50;99.90;;;;;;5005947;28;86659;-73
2023/10/25 09:26:31;;;;;;;8.95;3.83;;;11.50;99.90;;;;;;5014131;28;85894;-73
2023/10/25 09:29:23;;;;;;;21.37;6.67;;;11.50;99.90;;;;;;4997956;28;85919;-72
2023/10/25 09:31:51;;;;;;;5.25;3.65;;;11.50;99.90;;;;;;5031505;28;95003;-72
2023/10/25 09:34:16;;;;;;;8.23;3.70;;;11.50;99.90;;;;;;4993245;28;88574;-72
2023/10/25 09:37:04;;;;;;;7.43;4.38;;;11.50;99.90;;;;;;5019362;28;86273;-72
2023/10/25 09:39:35;;;;;;;6.93;3.42;;;11.60;99.90;;;;;;5020859;28;85772;-72
2023/10/25 09:42:25;;;;;;;5.65;3.40;;;11.70;99.90;;;;;;5020820;28;87295;-72
2023/10/25 09:44:59;;;;;;;3.15;2.85;;;11.70;99.90;;;;;;5000021;28;89936;-73
2023/10/25 09:47:29;;;;;;;4.38;2.95;;;11.70;99.90;;;;;;5011167;28;86382;-73
2023/10/25 09:50:23;;;;;;;3.28;2.67;;;11.70;99.90;;;;;;5010244;28;85900;-72
2023/10/25 09:52:58;;;;;;;;;;;11.70;99.90;;;;;;5009655;28;90351;-72
2023/10/25 09:56:10;;;;;;;2.40;1.98;;;11.70;99.90;;;;;;5018538;28;86426;-73
2023/10/25 09:58:37;;;;;;;4.10;2.22;;;11.80;99.90;;;;;;5019351;28;85691;-73
2023/10/25 10:01:23;;;;;;;2.28;2.00;;;11.80;99.90;;;;;;5004140;28;86439;-76
2023/10/25 10:03:54;;;;;;;3.60;2.42;;;11.80;99.90;;;;;;5021072;28;86997;-73
2023/10/25 10:06:46;;;;;;;3.33;1.92;;;11.80;99.90;;;;;;5009803;28;89500;-73
2023/10/25 10:09:13;;;;;;;1.98;1.80;;;11.80;99.90;;;;;;5021049;28;85778;-74
2023/10/25 10:12:05;;;;;;;4.45;2.20;;;11.80;99.90;;;;;;5005511;28;85945;-74
2023/10/25 10:14:38;;;;;;;4.10;2.40;;;11.80;99.90;;;;;;5010984;28;90444;-77
2023/10/25 10:17:17;;;;;;;4.00;2.00;;;11.80;99.90;;;;;;5010414;28;88094;-74
2023/10/25 10:19:52;;;;;;;3.05;1.75;;;11.80;99.90;;;;;;4975002;28;86500;-75
2023/10/25 10:22:18;;;;;;;2.97;1.70;;;11.80;99.90;;;;;;5007053;28;86338;-75
2023/10/25 10:27:40;;;;;;;3.50;1.98;;;11.80;99.90;;;;;;5018285;28;87118;-77
2023/10/25 10:30:33;;;;;;;2.60;1.63;;;11.80;99.90;;;;;;5022734;28;85993;-76
2023/10/25 10:33:01;;;;;;;4.65;1.85;;;11.80;99.90;;;;;;5011477;28;86446;-75
2023/10/25 10:35:28;;;;;;;2.70;1.67;;;11.80;99.90;;;;;;5007817;28;89537;-75
2023/10/25 10:37:57;;;;;;;2.15;1.50;;;11.80;99.90;;;;;;5009194;28;89687;-75
2023/10/25 10:40:23;;;;;;;2.17;1.42;;;11.80;99.90;;;;;;4992656;28;86116;-76
2023/10/25 10:42:49;;;;;;;3.95;1.80;;;11.80;99.90;;;;;;4997963;28;88351;-75
2023/10/25 10:45:18;;;;;;;4.32;1.20;;;11.80;99.90;;;;;;4981233;28;89491;-75
2023/10/25 10:48:19;;;;;;;3.63;1.70;;;11.80;99.90;;;;;;4998770;28;87780;-76
2023/10/25 10:50:49;;;;;;;3.78;1.50;;;11.80;99.90;;;;;;5009299;28;86521;-75
2023/10/25 10:53:15;;;;;;;1.83;1.08;;;11.80;99.90;;;;;;4997992;28;86954;-75
2023/10/25 10:55:41;;;;;;;1.30;1.05;;;11.80;99.90;;;;;;4995576;28;90641;-75
2023/10/25 10:58:07;;;;;;;1.77;1.00;;;11.80;99.90;;;;;;4995992;28;89775;-75
2023/10/25 11:00:33;;;;;;;6.28;1.38;;;11.80;99.90;;;;;;5004892;28;86740;-74
2023/10/25 11:03:03;;;;;;;2.25;1.05;;;11.90;99.90;;;;;;5004029;28;86446;-77
2023/10/25 11:05:31;;;;;;;2.40;1.20;;;11.90;99.90;;;;;;5006296;28;86951;-76
2023/10/25 11:07:57;;;;;;;2.58;1.33;;;11.90;99.90;;;;;;5011549;28;91558;-76
2023/10/25 11:10:22;;;;;;;1.90;0.85;;;11.90;99.90;;;;;;5007538;28;86941;-75
2023/10/25 11:12:49;;;;;;;3.65;0.85;;;11.90;99.90;;;;;;4999623;28;87036;-78
2023/10/25 11:15:16;;;;;;;1.38;0.93;;;11.90;99.90;;;;;;5010066;28;86956;-75
2023/10/25 11:17:43;;;;;;;3.42;1.13;;;11.90;99.90;;;;;;5010298;28;86778;-75
2023/10/25 11:20:09;;;;;;;2.70;0.80;;;11.90;99.90;;;;;;5003610;28;86894;-75
2023/10/25 11:22:36;;;;;;;0.77;0.50;;;11.90;99.90;;;;;;5008816;28;86926;-74
2023/10/25 11:25:09;;;;;;;2.05;0.80;;;11.90;99.90;;;;;;4997479;28;90482;-77
2023/10/25 11:27:53;;;;;;;1.55;0.80;;;11.90;99.90;;;;;;5008252;28;87115;-76
2023/10/25 11:30:19;;;;;;;3.03;0.95;;;12.00;99.90;;;;;;4996798;28;86904;-74
2023/10/25 11:32:47;;;;;;;0.70;0.50;;;12.00;99.90;;;;;;5000298;28;86670;-76
2023/10/25 11:35:23;;;;;;;4.05;0.60;;;12.00;99.90;;;;;;4997233;28;89838;-76
2023/10/25 11:37:54;;;;;;;0.77;0.57;;;12.00;99.90;;;;;;4998524;28;89523;-74
2023/10/25 11:40:20;;;;;;;1.83;0.60;;;12.10;99.90;;;;;;5009755;28;86429;-74
2023/10/25 11:42:46;;;;;;;1.67;0.60;;;12.10;99.90;;;;;;4996290;28;86123;-75
2023/10/25 11:45:12;;;;;;;1.73;0.70;;;12.10;99.90;;;;;;5008696;28;88735;-77
2023/10/25 11:47:40;;;;;;;0.65;0.50;;;12.20;99.90;;;;;;5006784;28;87088;-77
2023/10/25 11:50:06;;;;;;;0.80;0.57;;;12.30;99.90;;;;;;5008976;28;86498;-75
2023/10/25 11:52:32;;;;;;;1.27;0.40;;;12.30;99.90;;;;;;4996982;28;86321;-77
2023/10/25 11:55:01;;;;;;;0.40;0.30;;;12.30;99.90;;;;;;5007603;28;86849;-75
2023/10/25 11:57:31;;;;;;;2.85;0.50;;;12.30;99.90;;;;;;4996011;28;88668;-78
2023/10/25 11:59:57;;;;;;;2.83;0.50;;;12.40;99.90;;;;;;4998314;28;85882;-74
2023/10/25 12:02:24;;;;;;;0.60;0.50;;;12.40;99.90;;;;;;5010696;28;86678;-76
2023/10/25 12:04:53;;;;;;;1.02;0.40;;;12.50;99.90;;;;;;5010199;28;87438;-75
2023/10/25 12:07:21;;;;;;;0.77;0.40;;;12.50;99.90;;;;;;5010334;28;86110;-74
2023/10/25 12:09:49;;;;;;;1.02;0.70;;;12.50;99.90;;;;;;4990940;28;86847;-76
2023/10/25 12:12:15;;;;;;;0.93;0.50;;;12.50;99.90;;;;;;4995364;28;86320;-76
2023/10/25 12:14:41;;;;;;;1.27;0.55;;;12.60;99.90;;;;;;4997534;28;87403;-76
2023/10/25 12:17:07;;;;;;;1.13;0.43;;;12.60;99.90;;;;;;5015570;28;86724;-76
2023/10/25 12:19:36;;;;;;;1.25;0.40;;;12.60;99.90;;;;;;4991169;28;86466;-74
2023/10/25 12:22:19;;;;;;;1.15;0.40;;;12.60;99.90;;;;;;4994594;28;86848;-75
2023/10/25 12:24:48;;;;;;;2.33;0.67;;;12.60;99.90;;;;;;5010263;28;88162;-75
2023/10/25 12:27:15;;;;;;;1.88;0.40;;;12.70;99.90;;;;;;5007509;28;87602;-74
2023/10/25 12:29:41;;;;;;;2.55;0.40;;;12.70;99.90;;;;;;4984984;28;87079;-75
2023/10/25 12:32:07;;;;;;;0.85;0.47;;;12.70;99.90;;;;;;4986867;28;86666;-74
2023/10/25 12:34:33;;;;;;;1.25;0.40;;;12.70;99.90;;;;;;4985923;28;88398;-75
2023/10/25 12:36:59;;;;;;;0.98;0.43;;;12.70;99.90;;;;;;4985602;28;90261;-78
2023/10/25 12:39:26;;;;;;;0.60;0.40;;;12.80;99.90;;;;;;4985159;28;86706;-75
2023/10/25 12:41:52;;;;;;;0.68;0.30;;;12.80;99.90;;;;;;4985269;28;86603;-77
2023/10/25 12:44:18;;;;;;;1.58;0.32;;;12.90;99.90;;;;;;4987041;28;89950;-74
2023/10/25 12:46:44;;;;;;;0.73;0.35;;;12.90;99.90;;;;;;4981228;28;89895;-74
2023/10/25 12:49:11;;;;;;;2.10;0.40;;;13.00;99.90;;;;;;4984413;28;86503;-74
2023/10/25 12:51:37;;;;;;;0.55;0.40;;;13.10;99.90;;;;;;4981924;28;86737;-76
2023/10/25 12:54:03;;;;;;;3.25;0.30;;;13.20;99.90;;;;;;4989173;28;86966;-75
2023/10/25 12:56:29;;;;;;;0.82;0.57;;;13.20;99.90;;;;;;4985181;28;89715;-75
2023/10/25 12:58:55;;;;;;;0.28;0.20;;;13.20;99.90;;;;;;4984918;28;87029;-76
2023/10/25 13:01:22;;;;;;;1.75;0.55;;;13.30;99.90;;;;;;4982964;28;86560;-76
2023/10/25 13:03:51;;;;;;;1.05;0.50;;;13.30;99.90;;;;;;4982429;28;89751;-75
2023/10/25 13:06:16;;;;;;;2.83;0.52;;;13.30;99.90;;;;;;4983946;28;89883;-75
2023/10/25 13:08:42;;;;;;;1.67;0.47;;;13.30;99.90;;;;;;4998433;28;85933;-75
2023/10/25 13:11:08;;;;;;;0.82;0.40;;;13.40;99.90;;;;;;5016513;28;86602;-76
2023/10/25 13:13:34;;;;;;;0.55;0.30;;;13.40;99.90;;;;;;4998351;28;90249;-76
2023/10/25 13:16:01;;;;;;;1.55;0.40;;;13.50;99.90;;;;;;4995860;28;90683;-77
2023/10/25 13:18:26;;;;;;;0.50;0.50;;;13.60;99.90;;;;;;5010409;28;86686;-79
2023/10/25 13:20:52;;;;;;;2.83;0.40;;;13.70;99.90;;;;;;4984409;28;86264;-75